createdAt,value
2018-06-18T00:00:49.003Z,0.00
2018-06-18T00:02:20.912Z,0.00
2018-06-18T00:03:52.621Z,0.00
2018-06-18T00:05:24.432Z,0.00
2018-06-18T00:06:56.241Z,0.00
2018-06-18T00:08:28.053Z,0.00
2018-06-18T00:09:59.861Z,0.00
2018-06-18T00:11:31.668Z,0.00
2018-06-18T00:13:03.478Z,0.00
2018-06-18T00:14:35.388Z,0.00
2018-06-18T00:16:07.098Z,0.00
2018-06-18T00:17:38.907Z,0.00
2018-06-18T00:19:10.718Z,0.00
2018-06-18T00:20:42.827Z,0.00
2018-06-18T00:22:14.337Z,0.00
2018-06-18T00:23:46.145Z,0.00
2018-06-18T00:25:17.958Z,0.00
2018-06-18T00:26:49.765Z,0.00
2018-06-18T00:28:21.575Z,0.00
2018-06-18T00:29:53.386Z,0.00
2018-06-18T00:31:25.195Z,0.00
2018-06-18T00:32:57.004Z,0.00
2018-06-18T00:34:28.813Z,0.00
2018-06-18T00:36:00.623Z,0.00
2018-06-18T00:37:32.434Z,0.00
2018-06-18T00:39:04.343Z,0.00
2018-06-18T00:40:36.052Z,0.00
2018-06-18T00:42:07.861Z,0.00
2018-06-18T00:43:39.671Z,0.00
2018-06-18T00:45:11.630Z,0.00
2018-06-18T00:46:43.291Z,0.00
2018-06-18T00:48:15.100Z,0.00
2018-06-18T00:49:46.910Z,0.00
2018-06-18T00:51:18.719Z,0.00
2018-06-18T00:52:50.530Z,0.00
2018-06-18T00:54:22.341Z,0.00
2018-06-18T00:55:54.153Z,0.00
2018-06-18T00:57:26.059Z,0.00
2018-06-18T00:58:57.769Z,0.00
2018-06-18T01:00:29.580Z,0.00
2018-06-18T01:02:01.390Z,0.00
2018-06-18T01:03:33.199Z,0.00
2018-06-18T01:05:05.009Z,0.00
2018-06-18T01:06:36.819Z,0.00
2018-06-18T01:08:08.627Z,0.00
2018-06-18T01:09:40.442Z,0.00
2018-06-18T01:11:12.247Z,0.00
2018-06-18T01:12:44.058Z,0.00
2018-06-18T01:14:15.868Z,0.00
2018-06-18T01:15:47.778Z,0.00
2018-06-18T01:17:19.490Z,0.00
2018-06-18T01:18:51.310Z,0.00
2018-06-18T01:20:23.105Z,0.00
2018-06-18T01:21:54.920Z,0.00
2018-06-18T01:23:26.728Z,0.00
2018-06-18T01:24:58.536Z,0.00
2018-06-18T01:26:30.345Z,0.00
2018-06-18T01:28:02.156Z,0.00
2018-06-18T01:29:33.966Z,0.00
2018-06-18T01:31:05.775Z,0.00
2018-06-18T01:32:37.594Z,0.00
2018-06-18T01:34:09.505Z,0.00
2018-06-18T01:35:41.203Z,0.00
2018-06-18T01:37:13.014Z,0.00
2018-06-18T01:38:44.823Z,0.00
2018-06-18T01:40:16.634Z,0.00
2018-06-18T01:41:48.444Z,0.00
2018-06-18T01:43:20.255Z,0.00
2018-06-18T01:44:52.064Z,0.00
2018-06-18T01:46:23.973Z,0.00
2018-06-18T01:47:55.683Z,0.00
2018-06-18T01:49:27.494Z,0.00
2018-06-18T01:50:59.352Z,0.00
2018-06-18T01:52:31.216Z,0.00
2018-06-18T01:54:02.923Z,0.00
2018-06-18T01:55:34.734Z,0.00
2018-06-18T01:57:06.543Z,0.00
2018-06-18T01:58:38.353Z,0.00
2018-06-18T02:00:10.164Z,0.00
2018-06-18T02:01:41.975Z,0.00
2018-06-18T02:03:13.786Z,0.00
2018-06-18T02:04:45.593Z,0.00
2018-06-18T02:06:17.404Z,0.00
2018-06-18T02:07:49.217Z,0.00
2018-06-18T02:09:21.025Z,0.00
2018-06-18T02:10:52.934Z,0.00
2018-06-18T02:12:24.648Z,0.00
2018-06-18T02:13:56.460Z,0.00
2018-06-18T02:15:28.270Z,0.00
2018-06-18T02:17:00.227Z,0.00
2018-06-18T02:18:31.884Z,0.00
2018-06-18T02:20:03.694Z,0.00
2018-06-18T02:21:35.505Z,0.00
2018-06-18T02:23:07.313Z,0.00
2018-06-18T02:24:39.127Z,0.00
2018-06-18T02:26:10.935Z,0.00
2018-06-18T02:27:42.743Z,0.00
2018-06-18T02:29:14.654Z,0.00
2018-06-18T02:30:46.365Z,0.00
2018-06-18T02:32:18.173Z,0.00
2018-06-18T02:33:49.985Z,0.00
2018-06-18T02:35:21.795Z,0.00
2018-06-18T02:36:53.605Z,0.00
2018-06-18T02:38:25.416Z,0.00
2018-06-18T02:39:57.224Z,0.00
2018-06-18T02:41:29.035Z,0.00
2018-06-18T02:43:00.845Z,0.00
2018-06-18T02:44:32.655Z,0.00
2018-06-18T02:46:04.466Z,0.00
2018-06-18T02:47:36.524Z,0.00
2018-06-18T02:49:08.085Z,0.00
2018-06-18T02:50:39.893Z,0.00
2018-06-18T02:52:11.703Z,0.00
2018-06-18T02:53:43.513Z,0.00
2018-06-18T02:55:15.325Z,0.00
2018-06-18T02:56:47.132Z,0.00
2018-06-18T02:58:18.943Z,0.00
2018-06-18T02:59:50.755Z,0.00
2018-06-18T03:01:22.565Z,0.00
2018-06-18T03:02:54.373Z,0.00
2018-06-18T03:04:26.183Z,0.00
2018-06-18T03:05:58.093Z,0.00
2018-06-18T03:07:29.802Z,0.00
2018-06-18T03:09:01.612Z,0.00
2018-06-18T03:10:33.422Z,0.00
2018-06-18T03:12:05.233Z,0.00
2018-06-18T03:13:37.041Z,0.00
2018-06-18T03:15:08.853Z,0.00
2018-06-18T03:16:40.661Z,0.00
2018-06-18T03:18:12.576Z,0.00
2018-06-18T03:19:44.280Z,0.00
2018-06-18T03:21:16.090Z,0.00
2018-06-18T03:22:47.899Z,0.00
2018-06-18T03:24:19.809Z,0.00
2018-06-18T03:25:51.524Z,0.00
2018-06-18T03:27:23.327Z,0.00
2018-06-18T03:28:55.137Z,0.00
2018-06-18T03:30:26.951Z,0.00
2018-06-18T03:31:58.766Z,0.00
2018-06-18T03:33:30.565Z,0.00
2018-06-18T03:35:02.374Z,0.00
2018-06-18T03:36:34.335Z,0.00
2018-06-18T03:38:05.993Z,0.00
2018-06-18T03:39:37.803Z,0.00
2018-06-18T03:41:09.612Z,0.00
2018-06-18T03:42:41.521Z,0.00
2018-06-18T03:44:13.236Z,0.00
2018-06-18T03:45:45.041Z,0.00
2018-06-18T03:47:16.850Z,0.00
2018-06-18T03:48:48.759Z,0.00
2018-06-18T03:50:20.470Z,0.00
2018-06-18T03:51:52.279Z,0.00
2018-06-18T03:53:24.088Z,0.00
2018-06-18T03:54:55.900Z,0.00
2018-06-18T03:56:27.725Z,0.00
2018-06-18T03:57:59.519Z,0.00
2018-06-18T03:59:31.333Z,0.00
2018-06-18T04:01:03.238Z,0.00
2018-06-18T04:02:34.947Z,0.00
2018-06-18T04:04:06.757Z,0.00
2018-06-18T04:05:38.572Z,0.00
2018-06-18T04:07:10.397Z,0.00
2018-06-18T04:08:42.189Z,0.00
2018-06-18T04:10:13.998Z,0.00
2018-06-18T04:11:45.808Z,0.00
2018-06-18T04:13:17.619Z,0.00
2018-06-18T04:14:49.428Z,0.00
2018-06-18T04:16:21.239Z,0.00
2018-06-18T04:17:53.048Z,0.00
2018-06-18T04:19:25.171Z,0.00
2018-06-18T04:20:56.668Z,0.00
2018-06-18T04:22:28.478Z,0.00
2018-06-18T04:24:00.289Z,0.00
2018-06-18T04:25:32.098Z,0.00
2018-06-18T04:27:03.908Z,0.00
2018-06-18T04:28:35.718Z,0.00
2018-06-18T04:30:07.528Z,0.00
2018-06-18T04:31:39.337Z,0.00
2018-06-18T04:33:11.146Z,0.00
2018-06-18T04:34:42.957Z,0.00
2018-06-18T04:36:14.769Z,0.00
2018-06-18T04:37:46.968Z,0.00
2018-06-18T04:39:18.387Z,0.00
2018-06-18T04:40:50.195Z,0.00
2018-06-18T04:42:22.005Z,0.00
2018-06-18T04:43:53.814Z,0.00
2018-06-18T04:45:25.625Z,0.00
2018-06-18T04:46:57.433Z,0.00
2018-06-18T04:48:29.242Z,0.00
2018-06-18T04:50:01.153Z,0.00
2018-06-18T04:51:32.862Z,0.00
2018-06-18T04:53:04.671Z,0.00
2018-06-18T04:54:36.480Z,0.00
2018-06-18T04:56:08.391Z,0.00
2018-06-18T04:57:40.100Z,0.00
2018-06-18T04:59:11.911Z,0.00
2018-06-18T05:00:43.720Z,0.00
2018-06-18T05:02:15.530Z,0.00
2018-06-18T05:03:47.342Z,0.00
2018-06-18T05:05:19.150Z,0.00
2018-06-18T05:06:50.959Z,0.00
2018-06-18T05:08:22.769Z,0.00
2018-06-18T05:09:54.578Z,0.00
2018-06-18T05:11:26.388Z,0.00
2018-06-18T05:12:58.248Z,0.00
2018-06-18T05:14:30.108Z,0.00
2018-06-18T05:16:01.818Z,0.00
2018-06-18T05:17:33.627Z,0.00
2018-06-18T05:19:05.442Z,0.00
2018-06-18T05:20:37.462Z,0.00
2018-06-18T05:22:09.056Z,0.00
2018-06-18T05:23:40.866Z,0.00
2018-06-18T05:25:12.676Z,0.00
2018-06-18T05:26:44.637Z,0.00
2018-06-18T05:28:16.298Z,0.00
2018-06-18T05:29:48.106Z,0.00
2018-06-18T05:31:19.916Z,0.00
2018-06-18T05:32:51.825Z,0.00
2018-06-18T05:34:23.536Z,0.00
2018-06-18T05:35:55.346Z,0.00
2018-06-18T05:37:27.156Z,0.00
2018-06-18T05:38:59.118Z,0.00
2018-06-18T05:40:30.775Z,0.00
2018-06-18T05:42:02.584Z,0.00
2018-06-18T05:43:34.476Z,0.00
2018-06-18T05:45:06.205Z,0.00
2018-06-18T05:46:38.014Z,0.00
2018-06-18T05:48:09.823Z,0.00
2018-06-18T05:49:41.635Z,0.00
2018-06-18T05:51:13.644Z,0.00
2018-06-18T05:52:45.255Z,0.00
2018-06-18T05:54:17.064Z,0.00
2018-06-18T05:55:48.874Z,0.00
2018-06-18T05:57:20.684Z,0.00
2018-06-18T05:58:52.494Z,0.00
2018-06-18T06:00:24.304Z,0.00
2018-06-18T06:01:56.115Z,0.00
2018-06-18T06:03:27.925Z,0.00
2018-06-18T06:04:59.736Z,0.00
2018-06-18T06:06:31.547Z,0.00
2018-06-18T06:08:03.356Z,0.00
2018-06-18T06:09:35.269Z,0.00
2018-06-18T06:11:06.976Z,0.00
2018-06-18T06:12:38.788Z,0.00
2018-06-18T06:14:10.598Z,0.00
2018-06-18T06:15:42.408Z,0.00
2018-06-18T06:17:14.219Z,0.00
2018-06-18T06:18:46.030Z,0.00
2018-06-18T06:20:17.839Z,0.00
2018-06-18T06:21:49.750Z,0.00
2018-06-18T06:23:21.460Z,0.00
2018-06-18T06:24:53.273Z,0.00
2018-06-18T06:26:25.080Z,0.00
2018-06-18T06:27:57.197Z,0.00
2018-06-18T06:29:28.763Z,0.00
2018-06-18T06:31:00.515Z,0.00
2018-06-18T06:32:32.322Z,0.00
2018-06-18T06:34:04.172Z,0.00
2018-06-18T06:35:35.943Z,0.00
2018-06-18T06:37:07.753Z,0.00
2018-06-18T06:38:39.563Z,0.00
2018-06-18T06:40:11.374Z,0.00
2018-06-18T06:41:43.184Z,0.00
2018-06-18T06:43:14.994Z,0.00
2018-06-18T06:44:46.805Z,0.00
2018-06-18T06:46:18.716Z,0.00
2018-06-18T06:47:50.425Z,0.00
2018-06-18T06:49:22.235Z,0.00
2018-06-18T06:50:54.045Z,0.00
2018-06-18T06:52:25.955Z,0.00
2018-06-18T06:53:57.666Z,0.00
2018-06-18T06:55:29.480Z,0.00
2018-06-18T06:57:01.287Z,0.00
2018-06-18T06:58:33.096Z,0.00
2018-06-18T07:00:04.907Z,0.00
2018-06-18T07:01:36.717Z,0.00
2018-06-18T07:03:08.527Z,0.00
2018-06-18T07:04:40.739Z,0.00
2018-06-18T07:06:12.147Z,0.00
2018-06-18T07:07:44.187Z,0.00
2018-06-18T07:09:15.771Z,0.00
2018-06-18T07:10:47.578Z,0.00
2018-06-18T07:12:19.389Z,0.00
2018-06-18T07:13:51.199Z,0.00
2018-06-18T07:15:23.009Z,0.00
2018-06-18T07:16:54.819Z,0.00
2018-06-18T07:18:26.629Z,0.00
2018-06-18T07:19:58.441Z,0.00
2018-06-18T07:21:30.249Z,0.00
2018-06-18T07:23:02.311Z,0.00
2018-06-18T07:24:33.870Z,0.00
2018-06-18T07:26:05.747Z,0.00
2018-06-18T07:27:37.492Z,0.00
2018-06-18T07:29:09.300Z,0.00
2018-06-18T07:30:41.150Z,0.00
2018-06-18T07:32:12.920Z,0.00
2018-06-18T07:33:44.730Z,0.00
2018-06-18T07:35:16.540Z,0.00
2018-06-18T07:36:48.350Z,0.00
2018-06-18T07:38:20.160Z,0.00
2018-06-18T07:39:51.970Z,0.00
2018-06-18T07:41:23.880Z,0.00
2018-06-18T07:42:55.590Z,0.00
2018-06-18T07:44:27.401Z,0.00
2018-06-18T07:45:59.210Z,0.00
2018-06-18T07:47:31.020Z,0.00
2018-06-18T07:49:02.830Z,0.00
2018-06-18T07:50:34.640Z,0.00
2018-06-18T07:52:06.447Z,0.00
2018-06-18T07:53:38.357Z,0.00
2018-06-18T07:55:10.068Z,0.00
2018-06-18T07:56:41.876Z,0.00
2018-06-18T07:58:13.685Z,0.00
2018-06-18T07:59:45.595Z,0.00
2018-06-18T08:01:17.305Z,0.00
2018-06-18T08:02:49.113Z,0.00
2018-06-18T08:04:20.923Z,0.00
2018-06-18T08:05:52.735Z,0.00
2018-06-18T08:07:24.543Z,0.00
2018-06-18T08:08:56.351Z,0.00
2018-06-18T08:10:28.161Z,0.00
2018-06-18T08:11:59.970Z,0.00
2018-06-18T08:13:31.784Z,0.00
2018-06-18T08:15:03.589Z,0.00
2018-06-18T08:16:35.398Z,0.00
2018-06-18T08:18:07.308Z,0.00
2018-06-18T08:19:39.018Z,0.00
2018-06-18T08:21:10.828Z,0.00
2018-06-18T08:22:42.639Z,0.00
2018-06-18T08:24:14.548Z,0.00
2018-06-18T08:25:46.257Z,0.00
2018-06-18T08:27:18.070Z,0.00
2018-06-18T08:28:49.876Z,0.00
2018-06-18T08:30:21.686Z,0.00
2018-06-18T08:31:53.498Z,0.00
2018-06-18T08:33:25.306Z,0.00
2018-06-18T08:34:57.158Z,0.00
2018-06-18T08:36:29.277Z,0.00
2018-06-18T08:38:00.737Z,0.00
2018-06-18T08:39:32.546Z,0.00
2018-06-18T08:41:04.356Z,0.00
2018-06-18T08:42:36.165Z,0.00
2018-06-18T08:44:07.975Z,0.00
2018-06-18T08:45:39.788Z,0.00
2018-06-18T08:47:11.594Z,0.00
2018-06-18T08:48:43.404Z,0.00
2018-06-18T08:50:15.215Z,0.00
2018-06-18T08:51:47.025Z,0.00
2018-06-18T08:53:18.834Z,0.00
2018-06-18T08:54:50.895Z,0.00
2018-06-18T08:56:22.454Z,0.00
2018-06-18T08:57:54.308Z,0.00
2018-06-18T08:59:26.074Z,0.00
2018-06-18T09:00:57.884Z,0.00
2018-06-18T09:02:29.694Z,0.00
2018-06-18T09:04:01.504Z,0.00
2018-06-18T09:05:33.315Z,0.00
2018-06-18T09:07:05.122Z,0.00
2018-06-18T09:08:36.932Z,0.00
2018-06-18T09:10:08.742Z,0.00
2018-06-18T09:11:40.552Z,0.00
2018-06-18T09:13:12.461Z,0.00
2018-06-18T09:14:44.171Z,0.00
2018-06-18T09:16:15.981Z,0.00
2018-06-18T09:17:47.791Z,0.00
2018-06-18T09:19:19.600Z,0.00
2018-06-18T09:20:51.409Z,0.00
2018-06-18T09:22:23.219Z,4.00
2018-06-18T09:23:55.029Z,0.00
2018-06-18T09:25:26.839Z,0.00
2018-06-18T09:26:58.649Z,4.00
2018-06-18T09:28:30.456Z,8.00
2018-06-18T09:30:02.266Z,12.00
2018-06-18T09:31:34.177Z,16.00
2018-06-18T09:33:05.885Z,24.00
2018-06-18T09:34:37.694Z,36.00
2018-06-18T09:36:09.505Z,56.00
2018-06-18T09:37:41.313Z,72.00
2018-06-18T09:39:13.123Z,92.00
2018-06-18T09:40:44.933Z,124.00
2018-06-18T09:42:16.742Z,160.00
2018-06-18T09:43:48.553Z,200.00
2018-06-18T09:45:20.363Z,240.00
2018-06-18T09:46:52.172Z,292.00
2018-06-18T09:48:23.981Z,356.00
2018-06-18T09:49:55.890Z,384.00
2018-06-18T09:51:27.600Z,396.00
2018-06-18T09:52:59.409Z,448.00
2018-06-18T09:54:31.369Z,512.00
2018-06-18T09:56:03.131Z,556.00
2018-06-18T09:57:34.839Z,596.00
2018-06-18T09:59:06.648Z,664.00
2018-06-18T10:00:38.661Z,728.00
2018-06-18T10:03:42.108Z,908.00
2018-06-18T10:05:13.889Z,972.00
2018-06-18T10:06:45.728Z,1068.00
2018-06-18T10:08:17.583Z,1200.00
2018-06-18T10:09:49.419Z,1248.00
2018-06-18T10:11:21.128Z,1276.00
2018-06-18T10:12:52.939Z,1316.00
2018-06-18T10:14:24.794Z,1368.00
2018-06-18T10:15:57.216Z,1404.00
2018-06-18T10:17:28.371Z,1456.00
2018-06-18T10:20:31.990Z,1464.00
2018-06-18T10:22:03.804Z,1624.00
2018-06-18T10:23:35.612Z,1768.00
2018-06-18T10:25:07.422Z,1584.00
2018-06-18T10:26:39.233Z,1700.00
2018-06-18T10:28:11.411Z,1848.00
2018-06-18T10:29:42.852Z,1916.00
2018-06-18T10:31:14.662Z,2040.00
2018-06-18T10:32:46.776Z,2116.00
2018-06-18T10:34:18.587Z,1952.00
2018-06-18T10:35:50.094Z,1796.00
2018-06-18T10:37:21.906Z,2032.00
2018-06-18T10:38:53.891Z,2092.00
2018-06-18T10:40:25.526Z,2176.00
2018-06-18T10:41:57.335Z,2452.00
2018-06-18T10:43:29.349Z,2860.00
2018-06-18T10:45:00.960Z,3132.00
2018-06-18T10:46:32.868Z,3500.00
2018-06-18T10:48:04.579Z,3144.00
2018-06-18T10:49:37.127Z,3268.00
2018-06-18T10:51:08.199Z,3664.00
2018-06-18T10:52:40.010Z,3272.00
2018-06-18T10:54:11.821Z,3536.00
2018-06-18T10:55:43.632Z,3644.00
2018-06-18T10:57:15.443Z,3880.00
2018-06-18T10:58:47.254Z,4448.00
2018-06-18T11:01:50.876Z,5168.00
2018-06-18T11:03:22.989Z,5400.00
2018-06-18T11:04:54.697Z,5248.00
2018-06-18T11:06:26.617Z,5024.00
2018-06-18T11:07:58.454Z,4912.00
2018-06-18T11:09:29.934Z,4700.00
2018-06-18T11:11:01.745Z,5404.00
2018-06-18T11:12:33.553Z,5696.00
2018-06-18T11:14:05.366Z,5892.00
2018-06-18T11:15:37.175Z,5456.00
2018-06-18T11:17:09.352Z,5144.00
2018-06-18T11:18:40.798Z,5684.00
2018-06-18T11:21:44.421Z,5684.00
2018-06-18T11:24:48.146Z,6408.00
2018-06-18T11:26:19.916Z,6488.00
2018-06-18T11:27:51.668Z,6860.00
2018-06-18T11:29:23.478Z,6720.00
2018-06-18T11:30:55.289Z,6780.00
2018-06-18T11:32:27.114Z,6996.00
2018-06-18T11:33:58.910Z,7288.00
2018-06-18T11:35:30.731Z,7264.00
2018-06-18T11:37:02.648Z,7096.00
2018-06-18T11:38:34.347Z,6896.00
2018-06-18T11:40:06.163Z,7260.00
2018-06-18T11:41:38.031Z,7728.00
2018-06-18T11:43:09.878Z,8184.00
2018-06-18T11:44:41.595Z,9404.00
2018-06-18T11:46:13.399Z,9804.00
2018-06-18T11:47:45.210Z,8708.00
2018-06-18T11:49:17.020Z,8580.00
2018-06-18T11:50:49.037Z,9292.00
2018-06-18T11:52:20.947Z,9484.00
2018-06-18T11:53:52.456Z,8764.00
2018-06-18T11:55:24.290Z,8480.00
2018-06-18T11:56:56.148Z,10996.00
2018-06-18T11:58:27.995Z,9932.00
2018-06-18T11:59:59.703Z,9792.00
2018-06-18T12:01:32.015Z,11508.00
2018-06-18T12:03:03.370Z,12060.00
2018-06-18T12:04:35.155Z,13116.00
2018-06-18T12:06:06.955Z,12964.00
2018-06-18T12:07:38.760Z,11160.00
2018-06-18T12:09:11.177Z,9504.00
2018-06-18T12:10:42.383Z,9336.00
2018-06-18T12:12:14.195Z,9196.00
2018-06-18T12:13:46.035Z,8836.00
2018-06-18T12:16:49.689Z,9392.00
2018-06-18T12:18:21.443Z,11580.00
2018-06-18T12:19:53.557Z,11908.00
2018-06-18T12:21:25.069Z,11120.00
2018-06-18T12:24:28.697Z,8824.00
2018-06-18T12:26:00.706Z,8916.00
2018-06-18T12:27:32.314Z,9424.00
2018-06-18T12:29:04.257Z,9784.00
2018-06-18T12:30:35.937Z,10508.00
2018-06-18T12:32:07.750Z,12956.00
2018-06-18T12:33:39.573Z,13964.00
2018-06-18T12:35:11.372Z,14252.00
2018-06-18T12:36:43.185Z,15756.00
2018-06-18T12:38:16.781Z,17696.00
2018-06-18T12:39:46.809Z,18656.00
2018-06-18T12:41:18.812Z,20096.00
2018-06-18T12:42:50.436Z,22272.00
2018-06-18T12:44:22.453Z,20608.00
2018-06-18T12:45:54.312Z,18240.00
2018-06-18T12:47:25.886Z,18016.00
2018-06-18T12:48:57.685Z,21824.00
2018-06-18T12:50:29.498Z,21408.00
2018-06-18T12:52:01.400Z,23232.00
2018-06-18T12:55:05.177Z,24672.00
2018-06-18T12:58:09.086Z,21120.00
2018-06-18T12:59:40.432Z,19456.00
2018-06-18T13:01:12.286Z,18368.00
2018-06-18T13:02:45.608Z,17792.00
2018-06-18T13:04:15.969Z,16148.00
2018-06-18T13:05:47.782Z,15296.00
2018-06-18T13:10:23.853Z,14948.00
2018-06-18T13:11:55.000Z,14264.00
2018-06-18T13:13:27.006Z,13848.00
2018-06-18T13:16:30.828Z,14532.00
2018-06-18T13:18:02.730Z,16132.00
2018-06-18T13:19:34.319Z,19456.00
2018-06-18T13:21:05.771Z,24096.00
2018-06-18T13:22:37.855Z,23936.00
2018-06-18T13:24:09.396Z,23232.00
2018-06-18T13:25:41.226Z,24640.00
2018-06-18T13:27:13.028Z,26848.00
2018-06-18T13:28:45.062Z,27168.00
2018-06-18T13:30:16.656Z,26304.00
2018-06-18T13:31:48.468Z,24576.00
2018-06-18T13:33:20.292Z,25216.00
2018-06-18T13:34:52.202Z,23488.00
2018-06-18T13:36:24.029Z,24128.00
2018-06-18T13:37:55.943Z,24288.00
2018-06-18T13:39:27.545Z,22720.00
2018-06-18T13:40:59.361Z,21344.00
2018-06-18T13:42:31.272Z,21888.00
2018-06-18T13:44:03.082Z,24256.00
2018-06-18T13:47:07.165Z,27616.00
2018-06-18T13:48:38.437Z,29536.00
2018-06-18T13:50:10.264Z,28832.00
2018-06-18T13:51:42.112Z,32384.00
2018-06-18T13:53:14.106Z,26528.00
2018-06-18T13:54:45.756Z,25184.00
2018-06-18T13:56:17.697Z,26368.00
2018-06-18T13:57:49.678Z,27584.00
2018-06-18T13:59:21.807Z,26048.00
2018-06-18T14:02:24.785Z,24896.00
2018-06-18T14:03:57.141Z,27008.00
2018-06-18T14:05:28.418Z,27712.00
2018-06-18T14:07:00.237Z,29248.00
2018-06-18T14:08:32.067Z,29472.00
2018-06-18T14:10:03.919Z,27968.00
2018-06-18T14:11:35.839Z,27264.00
2018-06-18T14:13:07.502Z,30304.00
2018-06-18T14:16:11.136Z,33952.00
2018-06-18T14:19:14.974Z,31968.00
2018-06-18T14:20:46.590Z,32224.00
2018-06-18T14:22:18.942Z,31808.00
2018-06-18T14:25:22.191Z,28096.00
2018-06-18T14:26:53.865Z,26848.00
2018-06-18T14:28:26.042Z,35072.00
2018-06-18T14:29:57.500Z,28768.00
2018-06-18T14:31:30.165Z,40992.00
2018-06-18T14:33:01.134Z,34496.00
2018-06-18T14:34:33.176Z,31840.00
2018-06-18T14:36:04.876Z,28032.00
2018-06-18T14:37:36.594Z,39808.00
2018-06-18T14:39:08.411Z,34496.00
2018-06-18T14:40:40.232Z,45056.00
2018-06-18T14:43:45.385Z,40320.00
2018-06-18T14:46:47.638Z,28736.00
2018-06-18T14:48:19.492Z,26432.00
2018-06-18T14:49:51.785Z,23040.00
2018-06-18T14:51:23.540Z,23296.00
2018-06-18T14:52:54.792Z,24192.00
2018-06-18T14:54:27.014Z,39648.00
2018-06-18T14:55:58.513Z,27424.00
2018-06-18T14:57:30.254Z,27456.00
2018-06-18T14:59:02.073Z,41920.00
2018-06-18T15:02:05.841Z,39584.00
2018-06-18T15:03:37.600Z,21408.00
2018-06-18T15:05:09.475Z,27648.00
2018-06-18T15:06:41.377Z,49600.00
2018-06-18T15:08:14.517Z,19872.00
2018-06-18T15:09:45.280Z,33664.00
2018-06-18T15:11:16.633Z,53984.00
2018-06-18T15:12:48.486Z,70240.00
2018-06-18T15:14:20.725Z,54624.00
2018-06-18T15:15:52.131Z,69888.00
2018-06-18T15:17:23.911Z,70656.00
2018-06-18T15:18:55.945Z,76608.00
2018-06-18T15:20:27.616Z,82176.00
2018-06-18T15:21:59.477Z,82976.00
2018-06-18T15:25:03.613Z,83648.00
2018-06-18T15:28:06.964Z,88480.00
2018-06-18T15:29:38.787Z,89600.00
2018-06-18T15:34:14.151Z,83936.00
2018-06-18T15:35:45.772Z,64544.00
2018-06-18T15:38:49.530Z,43040.00
2018-06-18T15:40:21.244Z,55648.00
2018-06-18T15:41:53.107Z,53888.00
2018-06-18T15:43:24.947Z,52672.00
2018-06-18T15:44:56.706Z,75712.00
2018-06-18T15:46:29.091Z,55904.00
2018-06-18T15:49:32.375Z,17312.00
2018-06-18T15:51:03.994Z,19424.00
2018-06-18T15:54:08.170Z,30400.00
2018-06-18T15:55:39.872Z,46752.00
2018-06-18T15:57:12.364Z,34784.00
2018-06-18T15:58:43.303Z,36160.00
2018-06-18T16:00:15.456Z,32608.00
2018-06-18T16:01:46.959Z,25280.00
2018-06-18T16:04:50.383Z,33408.00
2018-06-18T16:06:22.890Z,50624.00
2018-06-18T16:07:54.361Z,34592.00
2018-06-18T16:09:25.876Z,75616.00
2018-06-18T16:10:57.755Z,57728.00
2018-06-18T16:12:29.563Z,71968.00
2018-06-18T16:14:01.308Z,50528.00
2018-06-18T16:17:04.953Z,64096.00
2018-06-18T16:20:08.629Z,26944.00
2018-06-18T16:21:40.419Z,22016.00
2018-06-18T16:23:12.297Z,19488.00
2018-06-18T16:24:44.421Z,20800.00
2018-06-18T16:27:48.137Z,24064.00
2018-06-18T16:29:19.528Z,22624.00
2018-06-18T16:30:51.413Z,22688.00
2018-06-18T16:33:55.085Z,41600.00
2018-06-18T16:35:26.811Z,52384.00
2018-06-18T16:36:58.630Z,28000.00
2018-06-18T16:38:30.470Z,24960.00
2018-06-18T16:41:34.090Z,26880.00
2018-06-18T16:43:05.991Z,26016.00
2018-06-18T16:44:37.734Z,34080.00
2018-06-18T16:46:09.556Z,30336.00
2018-06-18T16:47:41.627Z,32640.00
2018-06-18T16:49:13.188Z,71744.00
2018-06-18T16:50:45.011Z,64640.00
2018-06-18T16:52:16.834Z,63296.00
2018-06-18T16:53:49.051Z,62208.00
2018-06-18T16:55:20.466Z,63680.00
2018-06-18T16:56:52.470Z,30432.00
2018-06-18T16:58:24.108Z,54784.00
2018-06-18T16:59:56.079Z,62144.00
2018-06-18T17:01:27.749Z,72640.00
2018-06-18T17:02:59.584Z,51360.00
2018-06-18T17:06:03.437Z,66112.00
2018-06-18T17:07:35.237Z,62080.00
2018-06-18T17:09:06.926Z,65408.00
2018-06-18T17:10:38.681Z,62784.00
2018-06-18T17:13:42.473Z,60416.00
2018-06-18T17:15:14.672Z,40384.00
2018-06-18T17:16:45.969Z,55264.00
2018-06-18T17:18:18.243Z,54496.00
2018-06-18T17:19:49.620Z,34048.00
2018-06-18T17:21:21.434Z,58720.00
2018-06-18T17:22:53.355Z,53824.00
2018-06-18T17:24:25.381Z,46752.00
2018-06-18T17:25:57.204Z,58464.00
2018-06-18T17:27:29.027Z,40064.00
2018-06-18T17:29:00.581Z,37632.00
2018-06-18T17:33:36.214Z,19616.00
2018-06-18T17:36:39.855Z,21440.00
2018-06-18T17:38:11.473Z,23840.00
2018-06-18T17:39:43.304Z,21696.00
2018-06-18T17:41:15.114Z,23168.00
2018-06-18T17:42:46.938Z,25568.00
2018-06-18T17:44:19.059Z,36128.00
2018-06-18T17:45:50.874Z,31840.00
2018-06-18T17:47:22.391Z,30688.00
2018-06-18T17:48:54.216Z,27168.00
2018-06-18T17:50:26.045Z,31616.00
2018-06-18T17:51:58.206Z,21408.00
2018-06-18T17:53:29.760Z,15964.00
2018-06-18T17:55:01.487Z,23296.00
2018-06-18T17:56:33.321Z,14952.00
2018-06-18T17:58:05.125Z,12396.00
2018-06-18T17:59:37.186Z,13768.00
2018-06-18T18:01:09.065Z,14380.00
2018-06-18T18:02:40.585Z,15064.00
2018-06-18T18:04:12.497Z,16080.00
2018-06-18T18:05:44.415Z,14604.00
2018-06-18T18:07:16.038Z,14008.00
2018-06-18T18:08:47.850Z,17248.00
2018-06-18T18:10:19.668Z,17024.00
2018-06-18T18:11:51.498Z,14668.00
2018-06-18T18:13:23.382Z,11056.00
2018-06-18T18:14:55.116Z,9812.00
2018-06-18T18:16:26.934Z,9480.00
2018-06-18T18:17:59.281Z,8020.00
2018-06-18T18:19:30.569Z,8680.00
2018-06-18T18:21:02.601Z,7648.00
2018-06-18T18:24:06.365Z,7688.00
2018-06-18T18:25:38.135Z,6724.00
2018-06-18T18:27:10.179Z,7248.00
2018-06-18T18:28:41.482Z,7372.00
2018-06-18T18:30:13.375Z,7104.00
2018-06-18T18:31:45.091Z,6956.00
2018-06-18T18:33:16.904Z,7960.00
2018-06-18T18:34:48.739Z,7764.00
2018-06-18T18:36:20.537Z,7328.00
2018-06-18T18:37:52.345Z,5908.00
2018-06-18T18:39:24.409Z,6240.00
2018-06-18T18:42:28.037Z,6164.00
2018-06-18T18:43:59.600Z,6964.00
2018-06-18T18:47:03.227Z,5688.00
2018-06-18T18:48:35.140Z,4988.00
2018-06-18T18:50:06.860Z,4284.00
2018-06-18T18:51:38.668Z,4308.00
2018-06-18T18:53:10.488Z,4892.00
2018-06-18T18:56:15.368Z,5632.00
2018-06-18T18:57:46.454Z,5412.00
2018-06-18T18:59:17.733Z,4752.00
2018-06-18T19:00:49.556Z,4088.00
2018-06-18T19:02:21.467Z,4436.00
2018-06-18T19:03:53.227Z,3772.00
2018-06-18T19:05:25.044Z,3936.00
2018-06-18T19:06:56.803Z,3972.00
2018-06-18T19:08:28.611Z,3436.00
2018-06-18T19:10:00.425Z,3276.00
2018-06-18T19:11:32.350Z,3032.00
2018-06-18T19:13:04.074Z,3028.00
2018-06-18T19:14:36.423Z,1924.00
2018-06-18T19:16:08.177Z,1424.00
2018-06-18T19:17:39.610Z,1544.00
2018-06-18T19:19:11.310Z,1240.00
2018-06-18T19:20:43.206Z,1180.00
2018-06-18T19:22:14.928Z,1072.00
2018-06-18T19:23:46.733Z,1524.00
2018-06-18T19:25:18.543Z,1768.00
2018-06-18T19:26:50.354Z,1632.00
2018-06-18T19:28:22.175Z,1708.00
2018-06-18T19:29:53.982Z,1380.00
2018-06-18T19:31:25.820Z,1296.00
2018-06-18T19:32:57.599Z,1232.00
2018-06-18T19:34:29.411Z,1244.00
2018-06-18T19:36:01.226Z,1380.00
2018-06-18T19:37:33.143Z,1388.00
2018-06-18T19:39:05.746Z,1644.00
2018-06-18T19:40:36.695Z,1464.00
2018-06-18T19:42:08.467Z,1260.00
2018-06-18T19:43:40.365Z,1432.00
2018-06-18T19:45:12.199Z,1280.00
2018-06-18T19:46:43.945Z,1216.00
2018-06-18T19:49:47.541Z,1072.00
2018-06-18T19:51:19.334Z,968.00
2018-06-18T19:52:51.147Z,844.00
2018-06-18T19:54:22.955Z,820.00
2018-06-18T19:55:55.107Z,644.00
2018-06-18T19:57:26.682Z,640.00
2018-06-18T19:58:58.390Z,616.00
2018-06-18T20:00:30.224Z,548.00
2018-06-18T20:02:02.011Z,548.00
2018-06-18T20:03:33.837Z,524.00
2018-06-18T20:05:05.635Z,532.00
2018-06-18T20:06:37.444Z,488.00
2018-06-18T20:08:09.306Z,528.00
2018-06-18T20:09:41.162Z,564.00
2018-06-18T20:11:12.879Z,404.00
2018-06-18T20:12:44.690Z,344.00
2018-06-18T20:14:16.500Z,292.00
2018-06-18T20:15:48.413Z,256.00
2018-06-18T20:17:20.123Z,292.00
2018-06-18T20:18:51.937Z,292.00
2018-06-18T20:20:23.746Z,184.00
2018-06-18T20:21:55.556Z,128.00